sensor_id;sensor_type;location;lat;lon;timestamp;pressure;altitude;pressure_sealevel;temperature;humidity
77240;BME280;66258;53.170;-2.240;2023-07-22T00:00:02;100028.97;;;24.32;100.00
77240;BME280;66258;53.170;-2.240;2023-07-22T00:02:29;100021.81;;;24.31;100.00
77240;BME280;66258;53.170;-2.240;2023-07-22T00:05:03;100027.88;;;24.28;100.00
77240;BME280;66258;53.170;-2.240;2023-07-22T00:07:31;100020.34;;;24.24;100.00
77240;BME280;66258;53.170;-2.240;2023-07-22T00:10:07;100021.19;;;24.24;100.00
77240;BME280;66258;53.170;-2.240;2023-07-22T00:12:34;100016.88;;;24.12;100.00
77240;BME280;66258;53.170;-2.240;2023-07-22T00:15:02;100018.56;;;24.13;100.00
77240;BME280;66258;53.170;-2.240;2023-07-22T00:17:30;100016.75;;;23.96;100.00
77240;BME280;66258;53.170;-2.240;2023-07-22T00:19:57;100019.63;;;24.07;100.00
77240;BME280;66258;53.170;-2.240;2023-07-22T00:22:26;100016.28;;;24.05;100.00
77240;BME280;66258;53.170;-2.240;2023-07-22T00:24:53;100010.31;;;24.18;100.00
77240;BME280;66258;53.170;-2.240;2023-07-22T00:27:20;100008.31;;;24.13;100.00
77240;BME280;66258;53.170;-2.240;2023-07-22T00:29:48;100006.38;;;24.14;100.00
77240;BME280;66258;53.170;-2.240;2023-07-22T00:32:15;100008.00;;;24.05;100.00
77240;BME280;66258;53.170;-2.240;2023-07-22T00:34:42;100007.28;;;24.19;100.00
77240;BME280;66258;53.170;-2.240;2023-07-22T00:37:10;100005.81;;;24.12;100.00
77240;BME280;66258;53.170;-2.240;2023-07-22T00:39:46;100006.13;;;23.83;100.00
77240;BME280;66258;53.170;-2.240;2023-07-22T00:42:16;99997.25;;;23.81;100.00
77240;BME280;66258;53.170;-2.240;2023-07-22T00:44:43;100003.38;;;24.15;100.00
77240;BME280;66258;53.170;-2.240;2023-07-22T00:47:11;100000.53;;;24.37;100.00
77240;BME280;66258;53.170;-2.240;2023-07-22T00:49:38;100002.50;;;24.10;100.00
77240;BME280;66258;53.170;-2.240;2023-07-22T00:52:06;99999.00;;;23.92;100.00
77240;BME280;66258;53.170;-2.240;2023-07-22T00:54:33;99988.91;;;23.76;100.00
77240;BME280;66258;53.170;-2.240;2023-07-22T00:57:02;99987.09;;;23.87;100.00
77240;BME280;66258;53.170;-2.240;2023-07-22T00:59:33;99980.28;;;23.68;100.00
77240;BME280;66258;53.170;-2.240;2023-07-22T01:02:00;99974.19;;;23.71;100.00
77240;BME280;66258;53.170;-2.240;2023-07-22T01:04:28;99970.13;;;23.78;100.00
77240;BME280;66258;53.170;-2.240;2023-07-22T01:06:55;99965.97;;;23.76;100.00
77240;BME280;66258;53.170;-2.240;2023-07-22T01:09:24;99954.06;;;23.48;100.00
77240;BME280;66258;53.170;-2.240;2023-07-22T01:11:51;99952.97;;;23.76;100.00
77240;BME280;66258;53.170;-2.240;2023-07-22T01:14:20;99955.22;;;23.79;100.00
77240;BME280;66258;53.170;-2.240;2023-07-22T01:16:47;99948.59;;;23.80;100.00
77240;BME280;66258;53.170;-2.240;2023-07-22T01:19:17;99944.28;;;23.89;100.00
77240;BME280;66258;53.170;-2.240;2023-07-22T01:21:47;99936.81;;;23.90;100.00
77240;BME280;66258;53.170;-2.240;2023-07-22T01:24:15;99941.19;;;23.86;100.00
77240;BME280;66258;53.170;-2.240;2023-07-22T01:26:45;99939.16;;;23.76;100.00
77240;BME280;66258;53.170;-2.240;2023-07-22T01:29:13;99926.53;;;23.85;100.00
77240;BME280;66258;53.170;-2.240;2023-07-22T01:31:40;99926.88;;;23.94;100.00
77240;BME280;66258;53.170;-2.240;2023-07-22T01:34:08;99924.09;;;23.89;100.00
77240;BME280;66258;53.170;-2.240;2023-07-22T01:36:35;99918.56;;;23.94;100.00
77240;BME280;66258;53.170;-2.240;2023-07-22T01:39:05;99916.13;;;23.97;100.00
77240;BME280;66258;53.170;-2.240;2023-07-22T01:41:33;99901.31;;;24.09;100.00
77240;BME280;66258;53.170;-2.240;2023-07-22T01:44:00;99896.50;;;23.99;100.00
77240;BME280;66258;53.170;-2.240;2023-07-22T01:46:27;99896.88;;;24.08;100.00
77240;BME280;66258;53.170;-2.240;2023-07-22T01:48:55;99895.34;;;23.90;100.00
77240;BME280;66258;53.170;-2.240;2023-07-22T01:51:22;99889.00;;;23.94;100.00
77240;BME280;66258;53.170;-2.240;2023-07-22T01:53:50;99889.28;;;23.93;100.00
77240;BME280;66258;53.170;-2.240;2023-07-22T01:56:17;99878.63;;;24.12;100.00
77240;BME280;66258;53.170;-2.240;2023-07-22T01:58:46;99875.59;;;24.08;100.00
77240;BME280;66258;53.170;-2.240;2023-07-22T02:01:13;99865.13;;;24.20;100.00
77240;BME280;66258;53.170;-2.240;2023-07-22T02:03:40;99852.59;;;24.03;100.00
77240;BME280;66258;53.170;-2.240;2023-07-22T02:06:11;99852.59;;;24.03;100.00
77240;BME280;66258;53.170;-2.240;2023-07-22T02:08:38;99853.13;;;23.99;100.00
77240;BME280;66258;53.170;-2.240;2023-07-22T02:11:07;99850.56;;;23.93;100.00
77240;BME280;66258;53.170;-2.240;2023-07-22T02:13:35;99843.84;;;23.79;100.00
77240;BME280;66258;53.170;-2.240;2023-07-22T02:16:04;99842.09;;;23.68;100.00
77240;BME280;66258;53.170;-2.240;2023-07-22T02:18:32;99839.41;;;23.46;100.00
77240;BME280;66258;53.170;-2.240;2023-07-22T02:20:59;99842.31;;;23.61;100.00
77240;BME280;66258;53.170;-2.240;2023-07-22T02:23:29;99841.91;;;23.47;100.00
77240;BME280;66258;53.170;-2.240;2023-07-22T02:25:55;99833.16;;;23.55;100.00
77240;BME280;66258;53.170;-2.240;2023-07-22T02:28:24;99830.53;;;23.44;100.00
77240;BME280;66258;53.170;-2.240;2023-07-22T02:30:52;99829.47;;;23.50;100.00
77240;BME280;66258;53.170;-2.240;2023-07-22T02:33:21;99827.31;;;23.52;100.00
77240;BME280;66258;53.170;-2.240;2023-07-22T02:35:48;99817.09;;;23.52;100.00
77240;BME280;66258;53.170;-2.240;2023-07-22T02:38:15;99812.06;;;23.49;100.00
77240;BME280;66258;53.170;-2.240;2023-07-22T02:40:42;99825.16;;;23.59;100.00
77240;BME280;66258;53.170;-2.240;2023-07-22T02:43:09;99813.53;;;23.57;100.00
77240;BME280;66258;53.170;-2.240;2023-07-22T02:45:36;99810.78;;;23.57;100.00
77240;BME280;66258;53.170;-2.240;2023-07-22T02:48:04;99809.69;;;23.58;100.00
77240;BME280;66258;53.170;-2.240;2023-07-22T02:50:32;99809.59;;;23.48;100.00
77240;BME280;66258;53.170;-2.240;2023-07-22T02:52:59;99808.38;;;23.66;100.00
77240;BME280;66258;53.170;-2.240;2023-07-22T02:55:26;99805.56;;;23.34;100.00
77240;BME280;66258;53.170;-2.240;2023-07-22T02:57:52;99804.28;;;23.41;100.00
77240;BME280;66258;53.170;-2.240;2023-07-22T03:00:19;99797.28;;;23.34;100.00
77240;BME280;66258;53.170;-2.240;2023-07-22T03:02:49;99793.50;;;23.40;100.00
77240;BME280;66258;53.170;-2.240;2023-07-22T03:05:16;99792.88;;;23.33;100.00
77240;BME280;66258;53.170;-2.240;2023-07-22T03:07:44;99799.00;;;23.67;100.00
77240;BME280;66258;53.170;-2.240;2023-07-22T03:10:11;99782.50;;;23.45;100.00
77240;BME280;66258;53.170;-2.240;2023-07-22T03:12:38;99790.41;;;23.36;100.00
77240;BME280;66258;53.170;-2.240;2023-07-22T03:15:06;99780.72;;;23.34;100.00
77240;BME280;66258;53.170;-2.240;2023-07-22T03:17:33;99774.16;;;23.40;100.00
77240;BME280;66258;53.170;-2.240;2023-07-22T03:20:02;99776.97;;;23.45;100.00
77240;BME280;66258;53.170;-2.240;2023-07-22T03:22:29;99774.19;;;23.13;100.00
77240;BME280;66258;53.170;-2.240;2023-07-22T03:24:57;99783.22;;;23.35;100.00
77240;BME280;66258;53.170;-2.240;2023-07-22T03:27:24;99785.50;;;23.43;100.00
77240;BME280;66258;53.170;-2.240;2023-07-22T03:29:51;99779.41;;;23.41;100.00
77240;BME280;66258;53.170;-2.240;2023-07-22T03:32:18;99785.66;;;23.26;100.00
77240;BME280;66258;53.170;-2.240;2023-07-22T03:34:44;99779.75;;;23.18;100.00
77240;BME280;66258;53.170;-2.240;2023-07-22T03:37:11;99778.09;;;23.17;100.00
77240;BME280;66258;53.170;-2.240;2023-07-22T03:39:39;99767.13;;;22.95;100.00
77240;BME280;66258;53.170;-2.240;2023-07-22T03:42:08;99774.88;;;22.98;100.00
77240;BME280;66258;53.170;-2.240;2023-07-22T03:44:35;99773.28;;;23.02;100.00
77240;BME280;66258;53.170;-2.240;2023-07-22T03:47:02;99776.38;;;23.11;100.00
77240;BME280;66258;53.170;-2.240;2023-07-22T03:49:29;99767.94;;;23.22;100.00
77240;BME280;66258;53.170;-2.240;2023-07-22T03:51:56;99764.53;;;23.15;100.00
77240;BME280;66258;53.170;-2.240;2023-07-22T03:54:22;99773.16;;;23.19;100.00
77240;BME280;66258;53.170;-2.240;2023-07-22T03:56:49;99766.16;;;23.11;100.00
77240;BME280;66258;53.170;-2.240;2023-07-22T03:59:20;99756.84;;;23.17;100.00
77240;BME280;66258;53.170;-2.240;2023-07-22T04:01:47;99765.38;;;22.89;100.00
77240;BME280;66258;53.170;-2.240;2023-07-22T04:04:13;99753.94;;;23.02;100.00
77240;BME280;66258;53.170;-2.240;2023-07-22T04:06:40;99758.84;;;22.95;100.00
77240;BME280;66258;53.170;-2.240;2023-07-22T04:09:07;99744.19;;;22.94;100.00
77240;BME280;66258;53.170;-2.240;2023-07-22T04:11:36;99755.16;;;23.16;100.00
77240;BME280;66258;53.170;-2.240;2023-07-22T04:14:03;99753.88;;;23.24;100.00
77240;BME280;66258;53.170;-2.240;2023-07-22T04:16:31;99750.84;;;23.25;100.00
77240;BME280;66258;53.170;-2.240;2023-07-22T04:18:58;99747.75;;;23.54;100.00
77240;BME280;66258;53.170;-2.240;2023-07-22T04:21:25;99733.28;;;23.42;100.00
77240;BME280;66258;53.170;-2.240;2023-07-22T04:23:51;99727.09;;;23.24;100.00
77240;BME280;66258;53.170;-2.240;2023-07-22T04:26:18;99727.81;;;23.47;100.00
77240;BME280;66258;53.170;-2.240;2023-07-22T04:28:48;99728.44;;;23.54;100.00
77240;BME280;66258;53.170;-2.240;2023-07-22T04:31:15;99720.22;;;23.64;100.00
77240;BME280;66258;53.170;-2.240;2023-07-22T04:33:44;99721.06;;;23.33;100.00
77240;BME280;66258;53.170;-2.240;2023-07-22T04:36:11;99718.38;;;23.43;100.00
77240;BME280;66258;53.170;-2.240;2023-07-22T04:38:37;99709.84;;;23.49;100.00
77240;BME280;66258;53.170;-2.240;2023-07-22T04:41:04;99703.47;;;23.44;100.00
77240;BME280;66258;53.170;-2.240;2023-07-22T04:43:31;99695.88;;;23.24;100.00
77240;BME280;66258;53.170;-2.240;2023-07-22T04:45:57;99692.59;;;23.64;100.00
77240;BME280;66258;53.170;-2.240;2023-07-22T04:48:25;99684.72;;;23.46;100.00
77240;BME280;66258;53.170;-2.240;2023-07-22T04:50:54;99678.28;;;23.35;100.00
77240;BME280;66258;53.170;-2.240;2023-07-22T04:53:22;99677.34;;;23.56;100.00
77240;BME280;66258;53.170;-2.240;2023-07-22T04:55:49;99680.63;;;23.53;100.00
77240;BME280;66258;53.170;-2.240;2023-07-22T04:58:16;99675.88;;;23.49;100.00
77240;BME280;66258;53.170;-2.240;2023-07-22T05:00:43;99687.19;;;23.84;100.00
77240;BME280;66258;53.170;-2.240;2023-07-22T05:03:10;99683.69;;;23.57;100.00
77240;BME280;66258;53.170;-2.240;2023-07-22T05:05:37;99674.84;;;23.55;100.00
77240;BME280;66258;53.170;-2.240;2023-07-22T05:08:05;99663.72;;;23.45;100.00
77240;BME280;66258;53.170;-2.240;2023-07-22T05:10:32;99671.03;;;23.61;100.00
77240;BME280;66258;53.170;-2.240;2023-07-22T05:12:59;99671.66;;;23.78;100.00
77240;BME280;66258;53.170;-2.240;2023-07-22T05:15:26;99662.72;;;23.61;100.00
77240;BME280;66258;53.170;-2.240;2023-07-22T05:17:53;99653.28;;;23.52;100.00
77240;BME280;66258;53.170;-2.240;2023-07-22T05:20:22;99652.53;;;23.29;100.00
77240;BME280;66258;53.170;-2.240;2023-07-22T05:22:51;99649.78;;;23.67;100.00
77240;BME280;66258;53.170;-2.240;2023-07-22T05:25:21;99648.63;;;23.57;100.00
77240;BME280;66258;53.170;-2.240;2023-07-22T05:27:49;99649.41;;;23.53;100.00
77240;BME280;66258;53.170;-2.240;2023-07-22T05:30:16;99644.00;;;23.26;100.00
77240;BME280;66258;53.170;-2.240;2023-07-22T05:33:01;99640.13;;;23.27;100.00
77240;BME280;66258;53.170;-2.240;2023-07-22T05:35:29;99633.00;;;23.36;100.00
77240;BME280;66258;53.170;-2.240;2023-07-22T05:37:56;99637.72;;;23.41;100.00
77240;BME280;66258;53.170;-2.240;2023-07-22T05:40:24;99625.63;;;23.47;100.00
77240;BME280;66258;53.170;-2.240;2023-07-22T05:42:52;99620.81;;;23.79;100.00
77240;BME280;66258;53.170;-2.240;2023-07-22T05:45:19;99618.03;;;23.69;100.00
77240;BME280;66258;53.170;-2.240;2023-07-22T05:47:49;99615.75;;;23.61;100.00
77240;BME280;66258;53.170;-2.240;2023-07-22T05:50:16;99623.47;;;23.54;100.00
77240;BME280;66258;53.170;-2.240;2023-07-22T05:52:43;99621.84;;;23.63;100.00
77240;BME280;66258;53.170;-2.240;2023-07-22T05:55:11;99613.72;;;23.46;100.00
77240;BME280;66258;53.170;-2.240;2023-07-22T05:57:39;99610.28;;;23.24;100.00
77240;BME280;66258;53.170;-2.240;2023-07-22T06:00:07;99615.16;;;23.12;100.00
77240;BME280;66258;53.170;-2.240;2023-07-22T06:02:35;99612.91;;;23.51;100.00
77240;BME280;66258;53.170;-2.240;2023-07-22T06:05:02;99606.34;;;23.57;100.00
77240;BME280;66258;53.170;-2.240;2023-07-22T06:07:29;99604.19;;;23.64;100.00
77240;BME280;66258;53.170;-2.240;2023-07-22T06:09:57;99604.63;;;23.51;100.00
77240;BME280;66258;53.170;-2.240;2023-07-22T06:12:24;99606.31;;;23.52;100.00
77240;BME280;66258;53.170;-2.240;2023-07-22T06:14:57;99615.09;;;23.44;100.00
77240;BME280;66258;53.170;-2.240;2023-07-22T06:17:24;99601.75;;;22.88;100.00
77240;BME280;66258;53.170;-2.240;2023-07-22T06:19:52;99605.59;;;23.29;100.00
77240;BME280;66258;53.170;-2.240;2023-07-22T06:22:19;99593.97;;;23.22;100.00
77240;BME280;66258;53.170;-2.240;2023-07-22T06:24:47;99595.09;;;23.21;100.00
77240;BME280;66258;53.170;-2.240;2023-07-22T06:27:20;99598.84;;;23.10;100.00
77240;BME280;66258;53.170;-2.240;2023-07-22T06:29:48;99592.59;;;22.83;100.00
77240;BME280;66258;53.170;-2.240;2023-07-22T06:32:17;99595.38;;;22.83;100.00
77240;BME280;66258;53.170;-2.240;2023-07-22T06:34:44;99587.31;;;23.18;100.00
77240;BME280;66258;53.170;-2.240;2023-07-22T06:37:11;99592.78;;;23.08;100.00
77240;BME280;66258;53.170;-2.240;2023-07-22T06:39:38;99594.66;;;23.50;100.00
77240;BME280;66258;53.170;-2.240;2023-07-22T06:42:06;99589.78;;;23.57;100.00
77240;BME280;66258;53.170;-2.240;2023-07-22T06:44:33;99596.97;;;23.16;100.00
77240;BME280;66258;53.170;-2.240;2023-07-22T06:47:00;99600.13;;;23.35;100.00
77240;BME280;66258;53.170;-2.240;2023-07-22T06:49:28;99598.47;;;23.34;100.00
77240;BME280;66258;53.170;-2.240;2023-07-22T06:51:56;99595.56;;;23.13;100.00
77240;BME280;66258;53.170;-2.240;2023-07-22T06:54:23;99584.06;;;23.31;100.00
77240;BME280;66258;53.170;-2.240;2023-07-22T06:56:53;99584.34;;;23.25;100.00
77240;BME280;66258;53.170;-2.240;2023-07-22T06:59:20;99594.81;;;23.23;100.00
77240;BME280;66258;53.170;-2.240;2023-07-22T07:01:48;99586.81;;;23.21;100.00
77240;BME280;66258;53.170;-2.240;2023-07-22T07:04:15;99586.50;;;23.18;100.00
77240;BME280;66258;53.170;-2.240;2023-07-22T07:06:43;99588.81;;;22.94;100.00
77240;BME280;66258;53.170;-2.240;2023-07-22T07:09:11;99595.13;;;23.31;100.00
77240;BME280;66258;53.170;-2.240;2023-07-22T07:11:38;99589.47;;;23.06;100.00
77240;BME280;66258;53.170;-2.240;2023-07-22T07:14:05;99585.84;;;23.48;100.00
77240;BME280;66258;53.170;-2.240;2023-07-22T07:16:32;99593.50;;;23.36;100.00
77240;BME280;66258;53.170;-2.240;2023-07-22T07:19:01;99586.31;;;22.92;100.00
77240;BME280;66258;53.170;-2.240;2023-07-22T07:21:33;99581.47;;;23.10;100.00
77240;BME280;66258;53.170;-2.240;2023-07-22T07:24:02;99582.97;;;23.27;100.00
77240;BME280;66258;53.170;-2.240;2023-07-22T07:26:32;99573.63;;;23.39;100.00
77240;BME280;66258;53.170;-2.240;2023-07-22T07:29:02;99582.41;;;23.25;100.00
77240;BME280;66258;53.170;-2.240;2023-07-22T07:31:30;99570.44;;;23.57;100.00
77240;BME280;66258;53.170;-2.240;2023-07-22T07:33:59;99580.91;;;23.55;100.00
77240;BME280;66258;53.170;-2.240;2023-07-22T07:36:26;99570.81;;;23.28;100.00
77240;BME280;66258;53.170;-2.240;2023-07-22T07:38:54;99565.66;;;23.42;100.00
77240;BME280;66258;53.170;-2.240;2023-07-22T07:41:22;99558.94;;;23.28;100.00
77240;BME280;66258;53.170;-2.240;2023-07-22T07:43:49;99564.78;;;23.37;100.00
77240;BME280;66258;53.170;-2.240;2023-07-22T07:46:18;99558.50;;;23.51;100.00
77240;BME280;66258;53.170;-2.240;2023-07-22T07:48:46;99561.16;;;23.83;100.00
77240;BME280;66258;53.170;-2.240;2023-07-22T07:51:14;99558.38;;;23.78;100.00
77240;BME280;66258;53.170;-2.240;2023-07-22T07:53:45;99554.44;;;23.59;100.00
77240;BME280;66258;53.170;-2.240;2023-07-22T07:56:17;99550.97;;;23.37;100.00
77240;BME280;66258;53.170;-2.240;2023-07-22T07:58:47;99551.41;;;23.71;100.00
77240;BME280;66258;53.170;-2.240;2023-07-22T08:01:15;99555.00;;;23.66;100.00
77240;BME280;66258;53.170;-2.240;2023-07-22T08:03:43;99551.72;;;23.79;100.00
77240;BME280;66258;53.170;-2.240;2023-07-22T08:06:11;99553.97;;;23.82;100.00
77240;BME280;66258;53.170;-2.240;2023-07-22T08:08:39;99552.31;;;23.91;100.00
77240;BME280;66258;53.170;-2.240;2023-07-22T08:11:07;99548.41;;;23.77;100.00
77240;BME280;66258;53.170;-2.240;2023-07-22T08:13:35;99542.78;;;23.00;100.00
77240;BME280;66258;53.170;-2.240;2023-07-22T08:16:06;99553.09;;;23.77;100.00
77240;BME280;66258;53.170;-2.240;2023-07-22T08:18:41;99542.38;;;23.95;100.00
77240;BME280;66258;53.170;-2.240;2023-07-22T08:21:09;99541.78;;;23.78;100.00
77240;BME280;66258;53.170;-2.240;2023-07-22T08:23:36;99528.31;;;23.35;100.00
77240;BME280;66258;53.170;-2.240;2023-07-22T08:26:04;99536.13;;;23.48;100.00
77240;BME280;66258;53.170;-2.240;2023-07-22T08:28:33;99533.75;;;23.67;100.00
77240;BME280;66258;53.170;-2.240;2023-07-22T08:31:00;99532.19;;;23.34;100.00
77240;BME280;66258;53.170;-2.240;2023-07-22T08:33:34;99530.63;;;23.53;100.00
77240;BME280;66258;53.170;-2.240;2023-07-22T08:36:08;99527.72;;;23.95;100.00
77240;BME280;66258;53.170;-2.240;2023-07-22T08:38:36;99523.53;;;23.67;100.00
77240;BME280;66258;53.170;-2.240;2023-07-22T08:41:03;99534.84;;;23.76;100.00
77240;BME280;66258;53.170;-2.240;2023-07-22T08:43:32;99527.97;;;23.78;100.00
77240;BME280;66258;53.170;-2.240;2023-07-22T08:46:01;99528.25;;;23.82;100.00
77240;BME280;66258;53.170;-2.240;2023-07-22T08:48:34;99526.03;;;23.79;100.00
77240;BME280;66258;53.170;-2.240;2023-07-22T08:51:06;99523.78;;;23.66;100.00
77240;BME280;66258;53.170;-2.240;2023-07-22T08:53:34;99518.78;;;23.57;100.00
77240;BME280;66258;53.170;-2.240;2023-07-22T08:56:02;99513.19;;;23.42;100.00
77240;BME280;66258;53.170;-2.240;2023-07-22T08:58:30;99512.97;;;23.54;100.00
77240;BME280;66258;53.170;-2.240;2023-07-22T09:00:58;99501.44;;;23.92;100.00
77240;BME280;66258;53.170;-2.240;2023-07-22T09:03:25;99504.72;;;23.64;100.00
77240;BME280;66258;53.170;-2.240;2023-07-22T09:05:55;99505.59;;;23.85;100.00
77240;BME280;66258;53.170;-2.240;2023-07-22T09:08:23;99507.25;;;23.81;100.00
77240;BME280;66258;53.170;-2.240;2023-07-22T09:10:53;99502.25;;;23.68;100.00
77240;BME280;66258;53.170;-2.240;2023-07-22T09:13:21;99499.53;;;23.93;100.00
77240;BME280;66258;53.170;-2.240;2023-07-22T09:15:50;99487.13;;;24.21;100.00
77240;BME280;66258;53.170;-2.240;2023-07-22T09:18:18;99490.97;;;23.94;100.00
77240;BME280;66258;53.170;-2.240;2023-07-22T09:20:45;99501.00;;;24.26;100.00
77240;BME280;66258;53.170;-2.240;2023-07-22T09:23:13;99488.25;;;24.35;100.00
77240;BME280;66258;53.170;-2.240;2023-07-22T09:25:42;99495.41;;;24.06;100.00
77240;BME280;66258;53.170;-2.240;2023-07-22T09:28:09;99483.84;;;24.24;100.00
77240;BME280;66258;53.170;-2.240;2023-07-22T09:30:39;99485.47;;;24.20;100.00
77240;BME280;66258;53.170;-2.240;2023-07-22T09:33:08;99482.72;;;24.40;100.00
77240;BME280;66258;53.170;-2.240;2023-07-22T09:35:49;99480.22;;;24.33;100.00
77240;BME280;66258;53.170;-2.240;2023-07-22T09:38:25;99479.41;;;24.33;100.00
77240;BME280;66258;53.170;-2.240;2023-07-22T09:40:53;99467.81;;;24.26;100.00
77240;BME280;66258;53.170;-2.240;2023-07-22T09:43:22;99473.00;;;23.87;100.00
77240;BME280;66258;53.170;-2.240;2023-07-22T09:45:51;99479.41;;;24.33;100.00
77240;BME280;66258;53.170;-2.240;2023-07-22T09:48:20;99487.69;;;24.63;100.00
77240;BME280;66258;53.170;-2.240;2023-07-22T09:50:55;99471.91;;;24.13;100.00
77240;BME280;66258;53.170;-2.240;2023-07-22T09:53:24;99470.84;;;24.24;100.00
77240;BME280;66258;53.170;-2.240;2023-07-22T09:55:52;99472.44;;;24.91;100.00
77240;BME280;66258;53.170;-2.240;2023-07-22T09:58:19;99476.28;;;24.95;100.00
77240;BME280;66258;53.170;-2.240;2023-07-22T10:00:54;99471.75;;;25.30;100.00
77240;BME280;66258;53.170;-2.240;2023-07-22T10:03:23;99467.06;;;25.25;100.00
77240;BME280;66258;53.170;-2.240;2023-07-22T10:05:55;99470.59;;;25.36;100.00
77240;BME280;66258;53.170;-2.240;2023-07-22T10:08:26;99466.34;;;25.59;100.00
77240;BME280;66258;53.170;-2.240;2023-07-22T10:11:03;99463.09;;;25.47;100.00
77240;BME280;66258;53.170;-2.240;2023-07-22T10:13:32;99459.16;;;25.63;100.00
77240;BME280;66258;53.170;-2.240;2023-07-22T10:16:00;99457.63;;;25.31;100.00
77240;BME280;66258;53.170;-2.240;2023-07-22T10:18:27;99449.81;;;25.39;100.00
77240;BME280;66258;53.170;-2.240;2023-07-22T10:20:56;99451.75;;;25.38;100.00
77240;BME280;66258;53.170;-2.240;2023-07-22T10:23:26;99458.13;;;25.39;100.00
77240;BME280;66258;53.170;-2.240;2023-07-22T10:25:54;99448.31;;;25.66;100.00
77240;BME280;66258;53.170;-2.240;2023-07-22T10:28:21;99445.91;;;25.45;100.00
77240;BME280;66258;53.170;-2.240;2023-07-22T10:30:49;99442.59;;;25.48;100.00
77240;BME280;66258;53.170;-2.240;2023-07-22T10:33:16;99444.88;;;25.36;100.00
77240;BME280;66258;53.170;-2.240;2023-07-22T10:36:01;99438.75;;;25.39;100.00
77240;BME280;66258;53.170;-2.240;2023-07-22T10:38:30;99442.22;;;26.03;100.00
77240;BME280;66258;53.170;-2.240;2023-07-22T10:40:57;99443.69;;;25.52;100.00
77240;BME280;66258;53.170;-2.240;2023-07-22T10:43:26;99434.28;;;25.43;100.00
77240;BME280;66258;53.170;-2.240;2023-07-22T10:45:56;99433.69;;;25.56;100.00
77240;BME280;66258;53.170;-2.240;2023-07-22T10:48:25;99433.22;;;25.88;100.00
77240;BME280;66258;53.170;-2.240;2023-07-22T10:50:54;99420.25;;;25.29;100.00
77240;BME280;66258;53.170;-2.240;2023-07-22T10:53:30;99417.84;;;25.66;100.00
77240;BME280;66258;53.170;-2.240;2023-07-22T10:56:11;99416.66;;;26.12;100.00
77240;BME280;66258;53.170;-2.240;2023-07-22T10:58:59;99414.03;;;25.96;100.00
77240;BME280;66258;53.170;-2.240;2023-07-22T11:01:32;99411.44;;;26.05;100.00
77240;BME280;66258;53.170;-2.240;2023-07-22T11:04:09;99413.88;;;26.46;100.00
77240;BME280;66258;53.170;-2.240;2023-07-22T11:06:37;99403.94;;;26.92;100.00
77240;BME280;66258;53.170;-2.240;2023-07-22T11:09:06;99407.00;;;26.91;100.00
77240;BME280;66258;53.170;-2.240;2023-07-22T11:11:37;99403.44;;;26.61;100.00
77240;BME280;66258;53.170;-2.240;2023-07-22T11:14:15;99393.00;;;26.53;100.00
77240;BME280;66258;53.170;-2.240;2023-07-22T11:16:44;99399.38;;;26.54;100.00
77240;BME280;66258;53.170;-2.240;2023-07-22T11:19:13;99387.03;;;26.89;100.00
77240;BME280;66258;53.170;-2.240;2023-07-22T11:21:40;99384.84;;;26.86;100.00
77240;BME280;66258;53.170;-2.240;2023-07-22T11:24:08;99378.28;;;26.53;100.00
77240;BME280;66258;53.170;-2.240;2023-07-22T11:26:37;99376.03;;;26.31;100.00
77240;BME280;66258;53.170;-2.240;2023-07-22T11:29:05;99384.09;;;26.56;100.00
77240;BME280;66258;53.170;-2.240;2023-07-22T11:31:33;99373.34;;;26.74;100.00
77240;BME280;66258;53.170;-2.240;2023-07-22T11:34:02;99376.28;;;26.58;100.00
77240;BME280;66258;53.170;-2.240;2023-07-22T11:36:29;99368.94;;;26.44;100.00
77240;BME280;66258;53.170;-2.240;2023-07-22T11:39:01;99367.44;;;26.56;100.00
77240;BME280;66258;53.170;-2.240;2023-07-22T11:41:31;99369.31;;;26.85;100.00
77240;BME280;66258;53.170;-2.240;2023-07-22T11:43:58;99363.69;;;27.14;100.00
77240;BME280;66258;53.170;-2.240;2023-07-22T11:46:26;99352.28;;;27.34;100.00
77240;BME280;66258;53.170;-2.240;2023-07-22T11:48:54;99352.13;;;27.25;100.00
77240;BME280;66258;53.170;-2.240;2023-07-22T11:51:23;99351.53;;;27.10;100.00
77240;BME280;66258;53.170;-2.240;2023-07-22T11:53:53;99341.44;;;26.71;100.00
77240;BME280;66258;53.170;-2.240;2023-07-22T11:56:21;99347.19;;;26.80;100.00
77240;BME280;66258;53.170;-2.240;2023-07-22T11:58:51;99341.78;;;27.12;100.00
77240;BME280;66258;53.170;-2.240;2023-07-22T12:01:19;99344.78;;;27.34;100.00
77240;BME280;66258;53.170;-2.240;2023-07-22T12:03:46;99341.84;;;26.83;100.00
77240;BME280;66258;53.170;-2.240;2023-07-22T12:06:15;99334.63;;;27.06;100.00
77240;BME280;66258;53.170;-2.240;2023-07-22T12:08:47;99328.56;;;26.80;100.00
77240;BME280;66258;53.170;-2.240;2023-07-22T12:11:17;99327.50;;;26.76;100.00
77240;BME280;66258;53.170;-2.240;2023-07-22T12:13:45;99329.16;;;26.53;100.00
77240;BME280;66258;53.170;-2.240;2023-07-22T12:16:14;99318.44;;;26.18;100.00
77240;BME280;66258;53.170;-2.240;2023-07-22T12:18:42;99320.25;;;26.56;100.00
77240;BME280;66258;53.170;-2.240;2023-07-22T12:21:09;99316.31;;;26.39;100.00
77240;BME280;66258;53.170;-2.240;2023-07-22T12:23:37;99315.44;;;26.62;100.00
77240;BME280;66258;53.170;-2.240;2023-07-22T12:26:04;99307.53;;;27.35;100.00
77240;BME280;66258;53.170;-2.240;2023-07-22T12:28:31;99299.81;;;26.71;100.00
77240;BME280;66258;53.170;-2.240;2023-07-22T12:31:01;99300.47;;;26.82;100.00
77240;BME280;66258;53.170;-2.240;2023-07-22T12:33:29;99293.03;;;26.06;100.00
77240;BME280;66258;53.170;-2.240;2023-07-22T12:35:56;99295.44;;;26.65;100.00
77240;BME280;66258;53.170;-2.240;2023-07-22T12:38:24;99291.44;;;26.23;100.00
77240;BME280;66258;53.170;-2.240;2023-07-22T12:40:54;99294.31;;;26.42;100.00
77240;BME280;66258;53.170;-2.240;2023-07-22T12:43:24;99294.19;;;27.19;100.00
77240;BME280;66258;53.170;-2.240;2023-07-22T12:45:51;99295.31;;;26.99;100.00